메인 페이지
METAR-TAF:

METAR-TAF

공항 :

빙엄턴, 뉴욕, 미국

위도: 42-12-28N, 경도: 075-58-53W, 고도: 496m

현재 날씨관측

예보는 25분 전, 19:53시(UTC)에 발표되었습니다.
북서10kt, 순간 최대 풍속 18kt
온도 -4°C
습도 49%
기압 1025 hPa
시정: 16.1km
맑음

METAR: KBGM 071953Z 31010G18KT 10SM CLR M04/M13 A3028 RMK AO2 SLP278 T10391128

시각: 15:18 (20:18 UTC)

예보

예보는 2 시간 58분 전, 17:20시(UTC)에 발표되었습니다.
예보 대상 시간: 07일 18시부터 08일 18시까지 (UTC)
북서12kt
시정: 10km
고도 2500ft 상공 구름 보통
07일 2300시부터 (UTC)
북북서6kt
시정: 10km
고도 25000ft 상공 구름 조금

TAF: KBGM 071720Z 0718/0818 32012KT P6SM SCT025 FM072300 34006KT P6SM FEW250

4,000개 이상의 공항 관측 자료 및 예보 (METAR 및 TAF 보고).

지도상에서 검색 가능한 기상관측소가 노란 점과 빨간 점으로 표시되어 있습니다.

기상관측소 명을 보려면 표시 위로 마우스를 이동하세요.

날씨 관측과 예보를 보려면 클릭하세요.

지도 변경 : 확대하려면 엑스 표시가 있는 녹색 버튼, 축소하려면 빼기 표시가 있는 녹색 버튼, 다음 페이지의 지도를 보려면 녹색 화살표를 클릭하세요.


METAR-TAF: